createdAt,value
2023-02-19T00:02:20.891Z,8.98
2023-02-19T00:04:47.994Z,7.17
2023-02-19T00:07:15.242Z,7.97
2023-02-19T00:09:42.333Z,6.78
2023-02-19T00:12:09.443Z,7.65
2023-02-19T00:14:36.543Z,6.65
2023-02-19T00:17:03.618Z,6.55
2023-02-19T00:19:30.777Z,5.47
2023-02-19T00:21:57.873Z,9.23
2023-02-19T00:24:24.983Z,6.60
2023-02-19T00:26:51.969Z,6.50
2023-02-19T00:29:21.044Z,6.40
2023-02-19T00:31:48.492Z,6.60
2023-02-19T00:34:15.706Z,8.30
2023-02-19T00:36:43.569Z,7.47
2023-02-19T00:39:15.794Z,7.17
2023-02-19T00:41:43.775Z,10.50
2023-02-19T00:44:11.672Z,7.77
2023-02-19T00:46:43.944Z,9.83
2023-02-19T00:49:17.079Z,11.25
2023-02-19T00:51:44.099Z,8.40
2023-02-19T00:54:12.967Z,6.78
2023-02-19T00:56:40.568Z,7.68
2023-02-19T00:59:07.855Z,8.45
2023-02-19T01:01:35.065Z,9.07
2023-02-19T01:04:02.123Z,7.47
2023-02-19T01:06:30.921Z,9.60
2023-02-19T01:08:58.363Z,8.50
2023-02-19T01:11:25.798Z,8.73
2023-02-19T01:13:53.109Z,8.77
2023-02-19T01:16:24.869Z,8.40
2023-02-19T01:18:52.135Z,7.68
2023-02-19T01:21:24.379Z,8.93
2023-02-19T01:23:53.905Z,11.07
2023-02-19T01:26:28.117Z,10.07
2023-02-19T01:28:55.296Z,8.20
2023-02-19T01:31:24.681Z,8.10
2023-02-19T01:33:55.036Z,8.53
2023-02-19T01:36:22.376Z,9.13
2023-02-19T01:38:49.958Z,7.50
2023-02-19T01:41:23.000Z,7.63
2023-02-19T01:43:59.253Z,7.15
2023-02-19T01:46:33.946Z,7.53
2023-02-19T01:49:15.674Z,8.63
2023-02-19T01:51:48.434Z,8.40
2023-02-19T01:54:20.638Z,6.22
2023-02-19T01:56:50.343Z,7.47
2023-02-19T01:59:19.047Z,6.63
2023-02-19T02:01:46.419Z,8.85
2023-02-19T02:04:15.738Z,7.17
2023-02-19T02:06:47.094Z,7.45
2023-02-19T02:09:35.410Z,7.00
2023-02-19T02:12:02.541Z,6.27
2023-02-19T02:14:33.977Z,6.87
2023-02-19T02:17:16.418Z,5.87
2023-02-19T02:20:02.388Z,8.75
2023-02-19T02:22:41.341Z,7.10
2023-02-19T02:25:17.661Z,6.33
2023-02-19T02:27:53.900Z,6.83
2023-02-19T02:30:27.383Z,5.77
2023-02-19T02:33:15.005Z,6.07
2023-02-19T02:35:54.343Z,8.90
2023-02-19T02:38:27.676Z,7.27
2023-02-19T02:40:56.192Z,7.93
2023-02-19T02:43:25.121Z,6.87
2023-02-19T02:45:52.479Z,6.27
2023-02-19T02:48:33.828Z,6.03
2023-02-19T02:51:14.415Z,6.40
2023-02-19T02:54:14.930Z,6.50
2023-02-19T02:56:44.225Z,6.50
2023-02-19T02:59:13.905Z,7.37
2023-02-19T03:02:08.817Z,6.47
2023-02-19T03:05:12.716Z,9.40
2023-02-19T03:07:46.918Z,6.78
2023-02-19T03:10:20.721Z,5.53
2023-02-19T03:13:11.444Z,5.95
2023-02-19T03:16:11.955Z,6.97
2023-02-19T03:19:02.472Z,5.85
2023-02-19T03:21:29.922Z,7.10
2023-02-19T03:24:16.521Z,7.97
2023-02-19T03:26:53.964Z,6.87
2023-02-19T03:29:26.067Z,8.73
2023-02-19T03:32:04.312Z,6.70
2023-02-19T03:34:37.467Z,6.07
2023-02-19T03:37:21.863Z,7.43
2023-02-19T03:42:44.135Z,6.70
2023-02-19T03:45:20.162Z,4.93
2023-02-19T03:48:05.502Z,7.25
2023-02-19T03:50:50.308Z,7.18
2023-02-19T03:53:32.984Z,6.90
2023-02-19T03:56:18.868Z,5.70
2023-02-19T03:58:59.727Z,6.90
2023-02-19T04:02:07.139Z,7.03
2023-02-19T04:04:53.404Z,7.20
2023-02-19T04:07:23.002Z,7.20
2023-02-19T04:09:52.142Z,6.03
2023-02-19T04:12:21.650Z,7.03
2023-02-19T04:14:58.984Z,6.18
2023-02-19T04:17:49.621Z,6.30
2023-02-19T04:20:19.696Z,7.03
2023-02-19T04:22:47.662Z,6.40
2023-02-19T04:25:14.803Z,7.50
2023-02-19T04:27:45.436Z,6.13
2023-02-19T04:30:14.252Z,5.07
2023-02-19T04:32:41.319Z,8.15
2023-02-19T04:35:08.819Z,6.13
2023-02-19T04:37:35.912Z,7.15
2023-02-19T04:40:03.121Z,5.57
2023-02-19T04:42:30.717Z,6.43
2023-02-19T04:44:57.796Z,6.88
2023-02-19T04:47:24.908Z,6.53
2023-02-19T04:49:51.945Z,5.30
2023-02-19T04:52:18.991Z,6.32
2023-02-19T04:54:46.218Z,6.60
2023-02-19T04:57:13.269Z,6.30
2023-02-19T04:59:40.624Z,4.75
2023-02-19T05:02:07.756Z,3.88
2023-02-19T05:04:35.223Z,6.60
2023-02-19T05:07:02.292Z,6.75
2023-02-19T05:09:29.467Z,5.90
2023-02-19T05:11:56.575Z,5.03
2023-02-19T05:14:23.850Z,6.18
2023-02-19T05:16:50.911Z,5.90
2023-02-19T05:19:18.094Z,6.70
2023-02-19T05:21:45.092Z,5.72
2023-02-19T05:24:12.146Z,6.18
2023-02-19T05:26:39.276Z,7.20
2023-02-19T05:29:06.317Z,4.63
2023-02-19T05:31:36.288Z,6.03
2023-02-19T05:34:03.656Z,5.33
2023-02-19T05:36:31.011Z,5.73
2023-02-19T05:38:58.490Z,5.00
2023-02-19T05:41:30.300Z,5.00
2023-02-19T05:43:57.835Z,5.03
2023-02-19T05:46:27.858Z,6.93
2023-02-19T05:48:55.847Z,5.33
2023-02-19T05:51:24.655Z,5.72
2023-02-19T05:53:52.576Z,4.17
2023-02-19T05:56:37.397Z,5.93
2023-02-19T05:59:08.061Z,5.33
2023-02-19T06:01:35.928Z,6.47
2023-02-19T06:04:03.116Z,6.20
2023-02-19T06:06:30.241Z,7.20
2023-02-19T06:08:57.266Z,5.73
2023-02-19T06:11:24.698Z,6.47
2023-02-19T06:13:51.851Z,5.20
2023-02-19T06:16:19.780Z,6.53
2023-02-19T06:18:47.249Z,5.30
2023-02-19T06:21:15.336Z,6.23
2023-02-19T06:23:42.927Z,4.97
2023-02-19T06:26:19.239Z,4.85
2023-02-19T06:28:47.939Z,2.77
2023-02-19T06:31:15.548Z,6.38
2023-02-19T06:33:43.157Z,6.03
2023-02-19T06:36:16.148Z,5.97
2023-02-19T06:38:43.368Z,6.07
2023-02-19T06:41:13.715Z,4.78
2023-02-19T06:43:41.667Z,5.30
2023-02-19T06:46:09.230Z,6.20
2023-02-19T06:48:36.363Z,4.67
2023-02-19T06:51:03.601Z,7.10
2023-02-19T06:53:31.016Z,6.25
2023-02-19T06:55:58.782Z,6.57
2023-02-19T06:58:26.265Z,5.90
2023-02-19T07:00:53.719Z,5.53
2023-02-19T07:03:21.595Z,7.70
2023-02-19T07:05:49.020Z,5.80
2023-02-19T07:08:17.550Z,5.27
2023-02-19T07:10:46.092Z,6.43
2023-02-19T07:13:13.306Z,5.10
2023-02-19T07:15:40.383Z,7.65
2023-02-19T07:18:10.595Z,5.07
2023-02-19T07:20:38.437Z,6.67
2023-02-19T07:23:05.713Z,5.00
2023-02-19T07:25:32.825Z,6.72
2023-02-19T07:27:59.857Z,4.68
2023-02-19T07:30:26.891Z,5.72
2023-02-19T07:32:54.073Z,6.05
2023-02-19T07:35:21.305Z,7.18
2023-02-19T07:37:48.704Z,6.43
2023-02-19T07:40:16.045Z,6.30
2023-02-19T07:42:43.146Z,6.78
2023-02-19T07:45:11.356Z,5.60
2023-02-19T07:47:38.471Z,5.15
2023-02-19T07:50:05.752Z,6.20
2023-02-19T07:52:34.211Z,4.78
2023-02-19T07:55:01.366Z,5.67
2023-02-19T07:57:31.424Z,6.93
2023-02-19T07:59:59.104Z,6.22
2023-02-19T08:02:44.882Z,5.00
2023-02-19T08:05:12.000Z,5.83
2023-02-19T08:07:39.753Z,8.05
2023-02-19T08:10:25.824Z,6.93
2023-02-19T08:13:15.929Z,5.00
2023-02-19T08:15:43.122Z,5.05
2023-02-19T08:18:11.194Z,5.05
2023-02-19T08:20:38.341Z,5.75
2023-02-19T08:23:08.794Z,6.05
2023-02-19T08:25:36.010Z,5.85
2023-02-19T08:28:03.313Z,7.53
2023-02-19T08:30:34.484Z,5.95
2023-02-19T08:33:02.605Z,6.25
2023-02-19T08:35:30.012Z,5.37
2023-02-19T08:37:58.434Z,7.20
2023-02-19T08:40:26.470Z,6.90
2023-02-19T08:42:56.634Z,6.83
2023-02-19T08:45:24.475Z,7.13
2023-02-19T08:47:51.604Z,6.23
2023-02-19T08:50:18.724Z,7.15
2023-02-19T08:53:13.671Z,5.88
2023-02-19T08:55:40.934Z,5.18
2023-02-19T08:58:14.125Z,5.93
2023-02-19T09:00:52.568Z,6.78
2023-02-19T09:03:19.725Z,6.47
2023-02-19T09:05:48.264Z,7.53
2023-02-19T09:08:16.040Z,6.50
2023-02-19T09:10:43.525Z,6.40
2023-02-19T09:13:10.942Z,5.43
2023-02-19T09:15:39.341Z,6.00
2023-02-19T09:18:06.636Z,7.20
2023-02-19T09:20:33.767Z,9.67
2023-02-19T09:23:00.929Z,5.63
2023-02-19T09:25:30.227Z,7.67
2023-02-19T09:27:57.524Z,7.78
2023-02-19T09:30:25.192Z,4.80
2023-02-19T09:32:52.449Z,7.70
2023-02-19T09:35:19.592Z,5.93
2023-02-19T09:37:46.639Z,5.87
2023-02-19T09:40:14.234Z,6.30
2023-02-19T09:42:43.475Z,6.38
2023-02-19T09:45:20.169Z,7.07
2023-02-19T09:48:22.146Z,7.35
2023-02-19T09:50:50.049Z,4.68
2023-02-19T09:53:25.383Z,5.97
2023-02-19T09:55:53.537Z,7.65
2023-02-19T09:58:30.221Z,6.30
2023-02-19T10:01:00.341Z,7.13
2023-02-19T10:03:33.791Z,7.63
2023-02-19T10:06:12.138Z,7.22
2023-02-19T10:08:40.390Z,7.40
2023-02-19T10:11:11.929Z,7.30
2023-02-19T10:13:48.088Z,8.15
2023-02-19T10:16:20.503Z,6.88
2023-02-19T10:18:47.821Z,7.15
2023-02-19T10:21:27.592Z,7.25
2023-02-19T10:23:58.208Z,6.72
2023-02-19T10:26:25.594Z,7.80
2023-02-19T10:28:54.441Z,8.50
2023-02-19T10:31:25.582Z,7.25
2023-02-19T10:33:55.254Z,8.98
2023-02-19T10:36:37.406Z,7.30
2023-02-19T10:39:24.481Z,7.80
2023-02-19T10:41:54.612Z,6.07
2023-02-19T10:44:27.509Z,6.10
2023-02-19T10:46:57.978Z,6.32
2023-02-19T10:49:40.973Z,7.35
2023-02-19T10:52:40.243Z,6.63
2023-02-19T10:55:19.618Z,6.95
2023-02-19T10:57:47.122Z,8.95
2023-02-19T11:00:17.133Z,7.93
2023-02-19T11:02:44.907Z,6.63
2023-02-19T11:05:20.797Z,7.68
2023-02-19T11:07:56.055Z,5.65
2023-02-19T11:10:34.617Z,8.02
2023-02-19T11:13:03.873Z,6.97
2023-02-19T11:15:37.375Z,6.20
2023-02-19T11:18:30.135Z,7.80
2023-02-19T11:21:02.580Z,8.27
2023-02-19T11:23:32.509Z,5.18
2023-02-19T11:26:03.628Z,6.93
2023-02-19T11:28:40.126Z,6.82
2023-02-19T11:31:36.702Z,7.10
2023-02-19T11:34:21.363Z,7.72
2023-02-19T11:37:08.243Z,6.47
2023-02-19T11:39:36.140Z,6.88
2023-02-19T11:42:16.837Z,8.50
2023-02-19T11:45:21.495Z,6.38
2023-02-19T11:48:03.903Z,5.28
2023-02-19T11:50:59.717Z,6.60
2023-02-19T11:53:33.061Z,5.97
2023-02-19T11:56:23.814Z,5.30
2023-02-19T11:58:58.509Z,7.43
2023-02-19T12:01:36.481Z,7.72
2023-02-19T12:04:18.834Z,8.65
2023-02-19T12:07:07.637Z,7.38
2023-02-19T12:09:51.318Z,6.32
2023-02-19T12:12:52.123Z,5.85
2023-02-19T12:15:27.385Z,6.15
2023-02-19T12:18:16.640Z,5.38
2023-02-19T12:21:14.453Z,7.07
2023-02-19T12:23:50.544Z,8.10
2023-02-19T12:26:35.912Z,7.30
2023-02-19T12:29:12.198Z,8.23
2023-02-19T12:32:17.084Z,7.35
2023-02-19T12:35:12.973Z,4.50
2023-02-19T12:38:21.065Z,7.07
2023-02-19T12:40:57.213Z,6.50
2023-02-19T12:43:24.763Z,7.32
2023-02-19T12:45:52.568Z,8.50
2023-02-19T12:48:35.651Z,8.95
2023-02-19T12:51:22.884Z,6.25
2023-02-19T12:54:07.041Z,6.40
2023-02-19T12:56:51.499Z,7.35
2023-02-19T12:59:27.179Z,8.63
2023-02-19T13:02:06.726Z,9.05
2023-02-19T13:04:36.824Z,8.35
2023-02-19T13:07:12.643Z,6.32
2023-02-19T13:09:48.669Z,8.88
2023-02-19T13:12:24.353Z,8.77
2023-02-19T13:15:01.286Z,6.43
2023-02-19T13:17:46.425Z,4.55
2023-02-19T13:20:34.752Z,9.52
2023-02-19T13:23:20.412Z,7.45
2023-02-19T13:26:00.870Z,8.23
2023-02-19T13:28:49.015Z,5.93
2023-02-19T13:31:50.235Z,7.03
2023-02-19T13:34:49.698Z,7.90
2023-02-19T13:37:17.877Z,8.57
2023-02-19T13:39:53.586Z,5.38
2023-02-19T13:42:35.181Z,8.23
2023-02-19T13:45:05.121Z,6.82
2023-02-19T13:48:15.775Z,5.75
2023-02-19T13:50:45.912Z,8.32
2023-02-19T13:53:41.651Z,5.80
2023-02-19T13:56:32.445Z,6.35
2023-02-19T13:59:03.460Z,6.15
2023-02-19T14:01:55.236Z,6.95
2023-02-19T14:04:40.728Z,7.63
2023-02-19T14:07:07.723Z,8.40
2023-02-19T14:09:35.495Z,7.05
2023-02-19T14:12:19.526Z,8.00
2023-02-19T14:14:47.519Z,6.70
2023-02-19T14:17:35.884Z,6.80
2023-02-19T14:20:48.870Z,7.55
2023-02-19T14:23:23.148Z,6.95
2023-02-19T14:25:52.906Z,6.65
2023-02-19T14:28:36.356Z,8.57
2023-02-19T14:31:09.568Z,8.65
2023-02-19T14:33:42.651Z,7.63
2023-02-19T14:36:31.379Z,7.43
2023-02-19T14:39:11.320Z,7.53
2023-02-19T14:41:41.749Z,4.60
2023-02-19T14:44:18.424Z,7.88
2023-02-19T14:46:57.669Z,9.15
2023-02-19T14:49:30.933Z,7.72
2023-02-19T14:54:38.130Z,7.20
2023-02-19T14:57:12.009Z,7.43
2023-02-19T14:59:39.182Z,7.07
2023-02-19T15:02:21.355Z,6.18
2023-02-19T15:04:48.517Z,5.25
2023-02-19T15:07:22.212Z,5.72
2023-02-19T15:09:53.431Z,7.25
2023-02-19T15:12:23.824Z,7.35
2023-02-19T15:14:57.234Z,7.32
2023-02-19T15:17:31.165Z,7.03
2023-02-19T15:20:03.661Z,6.00
2023-02-19T15:22:34.249Z,7.97
2023-02-19T15:25:06.337Z,8.13
2023-02-19T15:27:34.487Z,7.40
2023-02-19T15:30:01.733Z,6.43
2023-02-19T15:32:32.733Z,8.27
2023-02-19T15:35:02.023Z,7.78
2023-02-19T15:37:36.322Z,7.47
2023-02-19T15:40:07.807Z,7.80
2023-02-19T15:42:38.233Z,7.90
2023-02-19T15:45:23.884Z,7.45
2023-02-19T15:47:50.958Z,6.60
2023-02-19T15:50:26.184Z,7.63
2023-02-19T15:53:00.816Z,7.30
2023-02-19T15:55:35.599Z,8.70
2023-02-19T15:58:09.345Z,7.53
2023-02-19T16:00:46.654Z,6.30
2023-02-19T16:03:19.170Z,7.13
2023-02-19T16:05:47.452Z,7.70
2023-02-19T16:08:14.443Z,8.27
2023-02-19T16:10:53.526Z,7.25
2023-02-19T16:13:24.457Z,7.85
2023-02-19T16:16:03.830Z,7.63
2023-02-19T16:18:31.437Z,7.45
2023-02-19T16:20:59.610Z,5.63
2023-02-19T16:23:27.561Z,8.10
2023-02-19T16:26:01.204Z,6.97
2023-02-19T16:28:31.231Z,7.88
2023-02-19T16:31:04.810Z,6.78
2023-02-19T16:33:41.303Z,6.03
2023-02-19T16:36:38.016Z,8.23
2023-02-19T16:39:10.405Z,7.97
2023-02-19T16:41:39.490Z,7.05
2023-02-19T16:44:21.768Z,9.18
2023-02-19T16:46:58.263Z,8.07
2023-02-19T16:49:27.674Z,7.40
2023-02-19T16:51:54.907Z,8.75
2023-02-19T16:54:22.075Z,9.88
2023-02-19T16:56:49.225Z,9.32
2023-02-19T16:59:16.411Z,7.82
2023-02-19T17:01:43.645Z,7.47
2023-02-19T17:04:15.317Z,6.68
2023-02-19T17:06:42.750Z,8.25
2023-02-19T17:09:10.086Z,7.30
2023-02-19T17:11:37.161Z,7.95
2023-02-19T17:14:04.348Z,7.25
2023-02-19T17:16:40.458Z,7.63
2023-02-19T17:19:18.688Z,8.15
2023-02-19T17:21:46.847Z,9.43
2023-02-19T17:24:14.617Z,8.40
2023-02-19T17:26:41.790Z,8.15
2023-02-19T17:29:15.735Z,8.70
2023-02-19T17:31:43.040Z,8.05
2023-02-19T17:34:10.662Z,9.23
2023-02-19T17:36:38.276Z,9.35
2023-02-19T17:39:07.352Z,9.55
2023-02-19T17:41:34.503Z,9.88
2023-02-19T17:44:01.642Z,7.03
2023-02-19T17:46:29.076Z,9.93
2023-02-19T17:48:56.324Z,8.40
2023-02-19T17:51:23.612Z,8.38
2023-02-19T17:53:50.775Z,8.43
2023-02-19T17:56:25.632Z,9.27
2023-02-19T17:58:54.030Z,8.55
2023-02-19T18:01:22.290Z,10.07
2023-02-19T18:03:49.878Z,7.53
2023-02-19T18:06:17.215Z,10.00
2023-02-19T18:08:51.879Z,9.05
2023-02-19T18:11:21.894Z,8.75
2023-02-19T18:13:50.798Z,8.32
2023-02-19T18:16:25.861Z,10.10
2023-02-19T18:18:53.382Z,9.93
2023-02-19T18:21:24.344Z,8.57
2023-02-19T18:23:51.568Z,9.32
2023-02-19T18:26:24.155Z,8.60
2023-02-19T18:28:54.179Z,9.35
2023-02-19T18:31:21.668Z,10.07
2023-02-19T18:33:48.850Z,9.35
2023-02-19T18:36:16.052Z,10.20
2023-02-19T18:38:43.157Z,10.00
2023-02-19T18:41:14.361Z,7.07
2023-02-19T18:43:42.221Z,9.80
2023-02-19T18:46:10.017Z,11.18
2023-02-19T18:48:37.879Z,9.77
2023-02-19T18:51:05.783Z,9.45
2023-02-19T18:53:32.965Z,9.60
2023-02-19T18:56:02.195Z,9.57
2023-02-19T18:58:32.446Z,9.75
2023-02-19T19:00:59.745Z,10.68
2023-02-19T19:03:30.342Z,9.35
2023-02-19T19:05:57.588Z,10.88
2023-02-19T19:08:25.110Z,9.60
2023-02-19T19:10:57.913Z,10.10
2023-02-19T19:13:25.713Z,10.07
2023-02-19T19:15:53.062Z,9.98
2023-02-19T19:18:20.804Z,9.35
2023-02-19T19:20:48.358Z,10.93
2023-02-19T19:23:15.937Z,10.65
2023-02-19T19:25:44.342Z,9.63
2023-02-19T19:28:11.731Z,9.23
2023-02-19T19:30:41.356Z,9.85
2023-02-19T19:33:09.015Z,10.38
2023-02-19T19:35:36.453Z,10.80
2023-02-19T19:38:07.080Z,9.70
2023-02-19T19:40:34.815Z,10.18
2023-02-19T19:43:02.254Z,10.88
2023-02-19T19:45:32.795Z,11.05
2023-02-19T19:48:00.129Z,10.75
2023-02-19T19:50:27.546Z,9.65
2023-02-19T19:52:54.915Z,8.35
2023-02-19T19:55:22.458Z,9.90
2023-02-19T19:57:49.874Z,11.45
2023-02-19T20:00:18.923Z,9.80
2023-02-19T20:02:46.773Z,10.45
2023-02-19T20:05:14.804Z,10.75
2023-02-19T20:07:42.101Z,7.55
2023-02-19T20:10:15.922Z,10.23
2023-02-19T20:12:43.986Z,10.25
2023-02-19T20:15:11.624Z,9.95
2023-02-19T20:17:38.995Z,11.43
2023-02-19T20:20:06.805Z,9.85
2023-02-19T20:22:35.113Z,10.65
2023-02-19T20:25:02.323Z,10.98
2023-02-19T20:27:30.749Z,11.07
2023-02-19T20:29:58.138Z,11.02
2023-02-19T20:32:31.074Z,11.30
2023-02-19T20:34:58.253Z,10.38
2023-02-19T20:37:26.556Z,11.23
2023-02-19T20:39:53.779Z,11.10
2023-02-19T20:42:21.305Z,10.18
2023-02-19T20:44:48.633Z,9.82
2023-02-19T20:47:16.126Z,12.25
2023-02-19T20:49:47.195Z,12.68
2023-02-19T20:52:16.986Z,10.75
2023-02-19T20:54:45.216Z,12.50
2023-02-19T20:57:14.360Z,11.05
2023-02-19T20:59:44.428Z,10.23
2023-02-19T21:02:19.227Z,11.52
2023-02-19T21:04:50.550Z,12.02
2023-02-19T21:07:18.166Z,8.35
2023-02-19T21:09:45.570Z,9.10
2023-02-19T21:12:16.077Z,9.55
2023-02-19T21:14:43.424Z,10.68
2023-02-19T21:17:11.946Z,11.55
2023-02-19T21:19:42.000Z,11.18
2023-02-19T21:22:09.287Z,11.55
2023-02-19T21:24:36.556Z,12.05
2023-02-19T21:27:03.940Z,12.95
2023-02-19T21:29:36.160Z,11.07
2023-02-19T21:32:03.780Z,13.52
2023-02-19T21:34:31.073Z,13.30
2023-02-19T21:36:58.278Z,13.43
2023-02-19T21:39:26.428Z,14.75
2023-02-19T21:41:58.747Z,14.18
2023-02-19T21:44:26.071Z,13.63
2023-02-19T21:46:54.471Z,14.85
2023-02-19T21:49:21.963Z,15.02
2023-02-19T21:51:50.798Z,14.50
2023-02-19T21:54:21.904Z,14.68
2023-02-19T21:56:49.171Z,17.23
2023-02-19T21:59:16.446Z,13.80
2023-02-19T22:01:44.310Z,14.48
2023-02-19T22:04:15.661Z,13.10
2023-02-19T22:06:43.860Z,14.57
2023-02-19T22:09:12.313Z,13.13
2023-02-19T22:11:39.604Z,13.70
2023-02-19T22:14:07.216Z,14.75
2023-02-19T22:16:34.696Z,13.63
2023-02-19T22:19:01.998Z,12.60
2023-02-19T22:21:33.721Z,14.73
2023-02-19T22:24:03.211Z,12.68
2023-02-19T22:26:33.153Z,13.95
2023-02-19T22:29:02.997Z,12.77
2023-02-19T22:31:33.137Z,14.27
2023-02-19T22:34:00.902Z,9.25
2023-02-19T22:36:33.522Z,12.27
2023-02-19T22:39:01.774Z,14.20
2023-02-19T22:41:31.691Z,14.35
2023-02-19T22:43:59.502Z,12.98
2023-02-19T22:46:30.705Z,16.50
2023-02-19T22:48:59.022Z,14.10
2023-02-19T22:51:26.549Z,13.05
2023-02-19T22:53:56.138Z,14.68
2023-02-19T22:56:26.365Z,14.02
2023-02-19T22:58:56.601Z,12.85
2023-02-19T23:01:24.750Z,13.05
2023-02-19T23:03:57.582Z,14.38
2023-02-19T23:06:34.300Z,14.48
2023-02-19T23:09:10.595Z,13.48
2023-02-19T23:11:39.552Z,14.07
2023-02-19T23:14:07.948Z,14.80
2023-02-19T23:16:38.159Z,14.13
2023-02-19T23:19:07.411Z,16.05
2023-02-19T23:21:34.604Z,15.18
2023-02-19T23:24:01.742Z,14.75
2023-02-19T23:26:28.962Z,15.80
2023-02-19T23:28:56.276Z,14.48
2023-02-19T23:31:24.072Z,13.07
2023-02-19T23:33:51.224Z,16.08
2023-02-19T23:36:18.491Z,15.05
2023-02-19T23:38:46.860Z,14.95
2023-02-19T23:41:16.341Z,15.15
2023-02-19T23:43:43.912Z,14.60
2023-02-19T23:46:15.583Z,14.90
2023-02-19T23:48:43.256Z,13.75
2023-02-19T23:51:10.481Z,13.32
2023-02-19T23:53:37.634Z,11.02
2023-02-19T23:56:05.232Z,14.85
2023-02-19T23:58:32.386Z,14.57
